Terminal Aerodrome Forecast
Issued by NWS Tuscon, AZ

Home | Current Version | Previous Version | Text Only | Print | Product List | Glossary On
Versions: 1 2 3 4 5 6 7 8 9 10 11 12 13 14 15
000
FTUS45 KTWC 280534
TAFTUS
TAF
KTUS 280534Z 2806/2906 34004KT P6SM SKC
     FM280800 12011KT P6SM SKC
     FM281400 12015G24KT P6SM SKC
     FM281600 11020G29KT P6SM FEW120
     FM282100 09008G16KT P6SM FEW120
     FM290300 13008KT P6SM FEW100=

USA.gov is the U.S. government's official web portal to all federal, state and local government web resources and services.